createdAt,value
2023-04-20T00:02:21.717Z,4.63
2023-04-20T00:04:50.198Z,5.07
2023-04-20T00:07:20.084Z,4.70
2023-04-20T00:09:49.517Z,4.20
2023-04-20T00:12:17.838Z,3.83
2023-04-20T00:14:46.146Z,6.43
2023-04-20T00:17:14.466Z,5.03
2023-04-20T00:19:42.792Z,4.53
2023-04-20T00:22:11.167Z,4.37
2023-04-20T00:24:40.894Z,5.30
2023-04-20T00:27:09.232Z,5.20
2023-04-20T00:29:37.557Z,4.27
2023-04-20T00:32:07.330Z,3.67
2023-04-20T00:34:36.064Z,3.80
2023-04-20T00:37:04.469Z,4.23
2023-04-20T00:39:32.838Z,3.90
2023-04-20T00:42:09.586Z,3.90
2023-04-20T00:44:37.999Z,13.23
2023-04-20T00:47:06.400Z,4.30
2023-04-20T00:49:35.002Z,4.03
2023-04-20T00:52:03.293Z,7.73
2023-04-20T00:54:33.401Z,7.27
2023-04-20T00:57:02.593Z,3.70
2023-04-20T00:59:32.481Z,3.87
2023-04-20T01:02:00.934Z,3.60
2023-04-20T01:04:30.034Z,4.40
2023-04-20T01:06:59.952Z,4.03
2023-04-20T01:09:28.402Z,3.73
2023-04-20T01:11:56.749Z,4.00
2023-04-20T01:14:25.291Z,4.20
2023-04-20T01:16:55.647Z,4.03
2023-04-20T01:19:24.142Z,3.23
2023-04-20T01:21:52.549Z,4.13
2023-04-20T01:24:22.215Z,3.63
2023-04-20T01:26:50.583Z,3.83
2023-04-20T01:29:19.124Z,3.93
2023-04-20T01:31:47.589Z,5.40
2023-04-20T01:34:17.708Z,6.43
2023-04-20T01:36:47.042Z,3.67
2023-04-20T01:39:15.625Z,3.10
2023-04-20T01:41:45.776Z,3.80
2023-04-20T01:44:14.240Z,4.27
2023-04-20T01:46:42.654Z,5.47
2023-04-20T01:49:11.293Z,5.23
2023-04-20T01:51:39.554Z,3.80
2023-04-20T01:54:08.721Z,4.60
2023-04-20T01:56:37.117Z,3.20
2023-04-20T01:59:06.961Z,3.60
2023-04-20T02:01:35.270Z,3.77
2023-04-20T02:04:03.634Z,4.03
2023-04-20T02:06:33.182Z,3.40
2023-04-20T02:09:02.473Z,3.53
2023-04-20T02:11:30.808Z,3.37
2023-04-20T02:13:59.138Z,4.43
2023-04-20T02:16:30.468Z,3.40
2023-04-20T02:18:58.848Z,4.50
2023-04-20T02:21:28.129Z,4.13
2023-04-20T02:23:56.652Z,3.50
2023-04-20T02:26:24.992Z,4.13
2023-04-20T02:28:53.284Z,3.87
2023-04-20T02:31:21.568Z,3.40
2023-04-20T02:33:51.613Z,3.43
2023-04-20T02:36:20.708Z,3.33
2023-04-20T02:38:49.044Z,3.30
2023-04-20T02:41:17.335Z,4.77
2023-04-20T02:43:45.624Z,2.67
2023-04-20T02:46:13.975Z,3.30
2023-04-20T02:48:42.330Z,3.60
2023-04-20T02:51:12.201Z,3.50
2023-04-20T02:53:45.585Z,3.30
2023-04-20T02:56:21.745Z,3.73
2023-04-20T02:58:56.277Z,5.33
2023-04-20T03:01:46.326Z,5.07
2023-04-20T03:04:22.211Z,3.60
2023-04-20T03:07:18.480Z,4.20
2023-04-20T03:09:48.264Z,3.60
2023-04-20T03:12:22.964Z,5.27
2023-04-20T03:14:54.341Z,3.23
2023-04-20T03:17:29.286Z,3.40
2023-04-20T03:19:57.747Z,4.60
2023-04-20T03:22:27.593Z,3.53
2023-04-20T03:25:00.812Z,3.60
2023-04-20T03:27:53.495Z,3.33
2023-04-20T03:30:22.541Z,4.43
2023-04-20T03:32:56.842Z,4.03
2023-04-20T03:35:25.350Z,3.80
2023-04-20T03:37:55.583Z,3.30
2023-04-20T03:40:24.257Z,4.47
2023-04-20T03:42:52.525Z,3.50
2023-04-20T03:45:21.116Z,3.30
2023-04-20T03:47:50.910Z,3.70
2023-04-20T03:50:19.201Z,4.77
2023-04-20T03:52:47.543Z,5.83
2023-04-20T03:55:17.338Z,3.70
2023-04-20T03:57:53.453Z,3.83
2023-04-20T04:00:23.551Z,4.17
2023-04-20T04:02:57.674Z,3.67
2023-04-20T04:05:29.507Z,5.10
2023-04-20T04:07:58.050Z,5.27
2023-04-20T04:10:28.151Z,6.70
2023-04-20T04:12:56.596Z,3.60
2023-04-20T04:15:25.479Z,4.63
2023-04-20T04:18:03.742Z,3.67
2023-04-20T04:20:34.222Z,3.63
2023-04-20T04:23:02.999Z,6.97
2023-04-20T04:25:43.620Z,6.13
2023-04-20T04:28:14.914Z,3.27
2023-04-20T04:31:07.134Z,3.40
2023-04-20T04:33:36.458Z,10.90
2023-04-20T04:36:07.173Z,6.00
2023-04-20T04:38:36.329Z,3.50
2023-04-20T04:41:06.246Z,3.80
2023-04-20T04:43:34.751Z,6.30
2023-04-20T04:46:15.728Z,3.83
2023-04-20T04:48:46.608Z,13.13
2023-04-20T04:51:14.947Z,3.60
2023-04-20T04:53:46.673Z,4.47
2023-04-20T04:56:18.624Z,5.10
2023-04-20T04:58:47.120Z,4.73
2023-04-20T05:01:15.563Z,7.80
2023-04-20T05:03:43.992Z,5.13
2023-04-20T05:06:12.415Z,3.83
2023-04-20T05:08:40.726Z,4.50
2023-04-20T05:11:08.994Z,4.13
2023-04-20T05:13:38.664Z,6.07
2023-04-20T05:16:07.412Z,5.83
2023-04-20T05:18:35.736Z,5.47
2023-04-20T05:21:06.692Z,4.33
2023-04-20T05:23:34.993Z,3.90
2023-04-20T05:26:03.314Z,8.27
2023-04-20T05:28:34.148Z,6.83
2023-04-20T05:31:05.192Z,5.60
2023-04-20T05:33:34.383Z,5.90
2023-04-20T05:36:02.646Z,5.13
2023-04-20T05:38:31.003Z,7.83
2023-04-20T05:40:59.316Z,4.83
2023-04-20T05:43:27.641Z,5.43
2023-04-20T05:45:56.029Z,4.73
2023-04-20T05:48:29.854Z,5.30
2023-04-20T05:50:58.924Z,4.30
2023-04-20T05:53:27.208Z,12.50
2023-04-20T05:55:55.465Z,4.47
2023-04-20T05:58:23.775Z,4.93
2023-04-20T06:00:52.159Z,4.23
2023-04-20T06:03:20.578Z,7.37
2023-04-20T06:05:50.884Z,7.57
2023-04-20T06:08:19.513Z,17.27
2023-04-20T06:10:47.982Z,5.50
2023-04-20T06:13:16.312Z,4.63
2023-04-20T06:15:44.720Z,3.93
2023-04-20T06:18:13.081Z,5.50
2023-04-20T06:20:41.523Z,5.43
2023-04-20T06:23:11.854Z,8.37
2023-04-20T06:25:40.994Z,4.80
2023-04-20T06:28:09.398Z,5.27
2023-04-20T06:30:37.892Z,6.67
2023-04-20T06:33:06.515Z,7.70
2023-04-20T06:35:35.004Z,9.20
2023-04-20T06:38:03.309Z,4.60
2023-04-20T06:40:33.272Z,5.70
2023-04-20T06:43:01.548Z,6.20
2023-04-20T06:45:31.200Z,6.63
2023-04-20T06:48:00.612Z,14.50
2023-04-20T06:50:28.950Z,6.13
2023-04-20T06:52:58.011Z,4.13
2023-04-20T06:55:26.323Z,4.70
2023-04-20T06:57:56.076Z,5.87
2023-04-20T07:00:27.713Z,4.37
2023-04-20T07:02:56.211Z,4.13
2023-04-20T07:05:24.998Z,4.97
2023-04-20T07:07:53.252Z,7.00
2023-04-20T07:10:21.742Z,3.90
2023-04-20T07:12:50.119Z,3.70
2023-04-20T07:15:19.793Z,4.17
2023-04-20T07:17:48.143Z,4.20
2023-04-20T07:20:16.478Z,6.10
2023-04-20T07:22:45.076Z,3.57
2023-04-20T07:25:13.312Z,5.40
2023-04-20T07:27:42.533Z,4.87
2023-04-20T07:30:12.158Z,5.63
2023-04-20T07:32:42.608Z,3.80
2023-04-20T07:35:12.230Z,5.40
2023-04-20T07:37:40.868Z,3.90
2023-04-20T07:40:11.392Z,3.23
2023-04-20T07:42:39.706Z,5.77
2023-04-20T07:45:09.195Z,5.07
2023-04-20T07:47:38.092Z,5.07
2023-04-20T07:50:09.523Z,8.90
2023-04-20T07:52:37.892Z,10.80
2023-04-20T07:55:08.227Z,12.83
2023-04-20T07:57:37.092Z,4.00
2023-04-20T08:00:07.154Z,4.93
2023-04-20T08:02:41.525Z,7.57
2023-04-20T08:05:11.911Z,5.40
2023-04-20T08:07:40.855Z,4.03
2023-04-20T08:10:10.635Z,4.47
2023-04-20T08:12:39.462Z,5.93
2023-04-20T08:15:09.273Z,3.87
2023-04-20T08:17:37.643Z,4.43
2023-04-20T08:20:07.044Z,5.73
2023-04-20T08:22:36.775Z,4.80
2023-04-20T08:25:05.570Z,6.17
2023-04-20T08:27:34.005Z,5.37
2023-04-20T08:30:04.309Z,6.40
2023-04-20T08:32:33.039Z,5.70
2023-04-20T08:35:01.390Z,7.07
2023-04-20T08:37:32.671Z,8.23
2023-04-20T08:40:03.025Z,7.27
2023-04-20T08:42:31.939Z,6.37
2023-04-20T08:45:00.358Z,5.53
2023-04-20T08:47:30.508Z,6.33
2023-04-20T08:50:01.231Z,7.33
2023-04-20T08:52:29.666Z,8.57
2023-04-20T08:54:58.165Z,8.10
2023-04-20T08:57:27.992Z,7.37
2023-04-20T08:59:57.481Z,9.97
2023-04-20T09:02:26.156Z,7.23
2023-04-20T09:05:04.075Z,8.33
2023-04-20T09:07:32.933Z,7.50
2023-04-20T09:10:02.194Z,7.70
2023-04-20T09:12:42.750Z,7.87
2023-04-20T09:15:12.439Z,7.97
2023-04-20T09:17:41.581Z,6.03
2023-04-20T09:20:11.500Z,7.83
2023-04-20T09:22:40.421Z,6.10
2023-04-20T09:25:16.294Z,8.00
2023-04-20T09:27:57.030Z,12.33
2023-04-20T09:30:26.531Z,6.50
2023-04-20T09:33:04.458Z,7.23
2023-04-20T09:35:32.935Z,6.07
2023-04-20T09:38:01.249Z,8.00
2023-04-20T09:40:30.543Z,9.60
2023-04-20T09:43:05.177Z,6.63
2023-04-20T09:45:34.069Z,5.63
2023-04-20T09:48:05.771Z,7.90
2023-04-20T09:50:48.077Z,5.23
2023-04-20T09:53:19.119Z,5.00
2023-04-20T09:55:48.705Z,6.67
2023-04-20T09:58:19.875Z,3.67
2023-04-20T10:00:48.313Z,7.47
2023-04-20T10:03:18.815Z,7.17
2023-04-20T10:05:47.558Z,3.80
2023-04-20T10:08:15.960Z,4.77
2023-04-20T10:10:46.427Z,3.30
2023-04-20T10:13:15.477Z,3.40
2023-04-20T10:15:45.208Z,3.87
2023-04-20T10:18:18.926Z,4.17
2023-04-20T10:20:48.033Z,4.13
2023-04-20T10:23:18.685Z,4.33
2023-04-20T10:25:57.925Z,4.53
2023-04-20T10:28:26.877Z,4.00
2023-04-20T10:30:56.682Z,5.23
2023-04-20T10:33:25.202Z,4.27
2023-04-20T10:35:55.123Z,4.80
2023-04-20T10:38:31.794Z,5.33
2023-04-20T10:41:08.070Z,6.67
2023-04-20T10:43:39.167Z,3.63
2023-04-20T10:46:16.891Z,4.97
2023-04-20T10:48:55.979Z,3.97
2023-04-20T10:51:25.172Z,3.30
2023-04-20T10:54:06.256Z,4.50
2023-04-20T10:56:39.574Z,4.70
2023-04-20T10:59:08.795Z,6.20
2023-04-20T11:01:38.889Z,3.20
2023-04-20T11:04:08.322Z,4.37
2023-04-20T11:06:37.708Z,3.70
2023-04-20T11:09:06.242Z,6.57
2023-04-20T11:11:37.412Z,6.47
2023-04-20T11:14:10.107Z,9.53
2023-04-20T11:16:51.372Z,5.20
2023-04-20T11:19:28.232Z,4.60
2023-04-20T11:21:56.745Z,4.93
2023-04-20T11:24:26.463Z,3.87
2023-04-20T11:26:56.335Z,5.00
2023-04-20T11:29:33.281Z,3.90
2023-04-20T11:32:05.682Z,5.47
2023-04-20T11:34:35.009Z,5.13
2023-04-20T11:37:07.645Z,4.30
2023-04-20T11:39:36.270Z,4.60
2023-04-20T11:42:04.963Z,6.70
2023-04-20T11:44:34.163Z,6.70
2023-04-20T11:47:03.980Z,3.90
2023-04-20T11:49:33.191Z,5.00
2023-04-20T11:52:01.725Z,3.37
2023-04-20T11:54:32.480Z,3.67
2023-04-20T11:57:00.929Z,4.10
2023-04-20T11:59:29.297Z,2.93
2023-04-20T12:01:57.672Z,4.33
2023-04-20T12:04:28.390Z,4.87
2023-04-20T12:06:58.708Z,4.70
2023-04-20T12:09:27.241Z,3.73
2023-04-20T12:11:55.716Z,3.57
2023-04-20T12:14:24.023Z,5.03
2023-04-20T12:16:52.352Z,3.57
2023-04-20T12:19:20.903Z,3.60
2023-04-20T12:21:50.581Z,5.67
2023-04-20T12:24:18.997Z,5.87
2023-04-20T12:26:47.840Z,4.03
2023-04-20T12:29:16.562Z,5.90
2023-04-20T12:31:45.364Z,4.90
2023-04-20T12:34:13.811Z,4.90
2023-04-20T12:36:42.230Z,7.00
2023-04-20T12:39:12.097Z,3.90
2023-04-20T12:41:41.990Z,5.87
2023-04-20T12:44:11.533Z,4.30
2023-04-20T12:46:40.036Z,5.60
2023-04-20T12:49:08.522Z,3.67
2023-04-20T12:51:36.939Z,6.50
2023-04-20T12:54:05.341Z,5.33
2023-04-20T12:56:35.184Z,4.37
2023-04-20T12:59:03.551Z,3.20
2023-04-20T13:01:31.895Z,4.33
2023-04-20T13:04:00.501Z,4.23
2023-04-20T13:06:29.153Z,4.93
2023-04-20T13:08:57.476Z,3.53
2023-04-20T13:11:27.276Z,5.07
2023-04-20T13:13:58.189Z,3.57
2023-04-20T13:16:26.930Z,4.40
2023-04-20T13:18:55.576Z,3.17
2023-04-20T13:21:23.910Z,3.70
2023-04-20T13:23:54.034Z,7.23
2023-04-20T13:26:23.266Z,3.43
2023-04-20T13:28:51.537Z,3.07
2023-04-20T13:31:21.462Z,2.93
2023-04-20T13:33:54.472Z,3.10
2023-04-20T13:36:23.084Z,3.40
2023-04-20T13:38:54.457Z,2.50
2023-04-20T13:41:23.687Z,4.40
2023-04-20T13:43:51.931Z,4.63
2023-04-20T13:46:21.732Z,4.23
2023-04-20T13:48:50.053Z,2.30
2023-04-20T13:51:18.378Z,2.53
2023-04-20T13:53:48.087Z,2.90
2023-04-20T13:56:17.122Z,6.43
2023-04-20T13:58:45.739Z,3.83
2023-04-20T14:01:15.489Z,4.45
2023-04-20T14:03:45.601Z,4.28
2023-04-20T14:06:14.071Z,4.88
2023-04-20T14:08:42.370Z,5.50
2023-04-20T14:11:10.822Z,3.38
2023-04-20T14:13:39.317Z,6.72
2023-04-20T14:16:10.472Z,5.57
2023-04-20T14:18:39.358Z,3.70
2023-04-20T14:21:09.261Z,5.05
2023-04-20T14:23:37.673Z,2.83
2023-04-20T14:26:06.186Z,3.80
2023-04-20T14:28:34.785Z,5.57
2023-04-20T14:31:03.836Z,29.30
2023-04-20T14:33:33.038Z,23.67
2023-04-20T14:36:01.309Z,3.95
2023-04-20T14:38:31.153Z,2.63
2023-04-20T14:41:00.717Z,5.30
2023-04-20T14:43:28.965Z,4.13
2023-04-20T14:45:58.853Z,3.50
2023-04-20T14:48:27.345Z,10.77
2023-04-20T14:50:55.934Z,2.72
2023-04-20T14:53:24.447Z,2.80
2023-04-20T14:55:54.154Z,4.83
2023-04-20T14:58:22.598Z,5.07
2023-04-20T15:00:51.157Z,2.50
2023-04-20T15:03:20.619Z,2.70
2023-04-20T15:05:49.314Z,4.40
2023-04-20T15:08:17.756Z,3.50
2023-04-20T15:10:46.038Z,12.15
2023-04-20T15:13:16.341Z,4.10
2023-04-20T15:15:48.886Z,4.78
2023-04-20T15:18:17.876Z,2.80
2023-04-20T15:20:46.432Z,4.33
2023-04-20T15:23:15.644Z,3.70
2023-04-20T15:25:44.107Z,4.23
2023-04-20T15:28:12.952Z,5.27
2023-04-20T15:30:42.702Z,9.87
2023-04-20T15:33:11.542Z,4.00
2023-04-20T15:35:40.152Z,5.97
2023-04-20T15:38:09.166Z,3.70
2023-04-20T15:40:38.751Z,3.20
2023-04-20T15:43:07.282Z,3.10
2023-04-20T15:45:35.841Z,4.73
2023-04-20T15:50:35.558Z,3.53
2023-04-20T15:53:04.461Z,6.43
2023-04-20T15:55:34.675Z,4.17
2023-04-20T15:58:03.098Z,4.47
2023-04-20T16:00:31.553Z,3.73
2023-04-20T16:03:02.233Z,2.93
2023-04-20T16:05:32.853Z,3.87
2023-04-20T16:08:01.459Z,4.13
2023-04-20T16:10:29.963Z,4.07
2023-04-20T16:12:58.296Z,4.63
2023-04-20T16:15:26.643Z,3.87
2023-04-20T16:17:55.087Z,3.93
2023-04-20T16:20:23.663Z,3.50
2023-04-20T16:22:53.439Z,3.47
2023-04-20T16:25:24.148Z,4.10
2023-04-20T16:27:52.801Z,4.67
2023-04-20T16:30:21.256Z,6.10
2023-04-20T16:32:49.807Z,6.20
2023-04-20T16:35:18.236Z,5.57
2023-04-20T16:37:47.040Z,3.97
2023-04-20T16:40:16.719Z,8.97
2023-04-20T16:42:45.102Z,3.57
2023-04-20T16:45:13.567Z,3.43
2023-04-20T16:47:42.239Z,5.83
2023-04-20T16:50:12.556Z,3.43
2023-04-20T16:52:41.059Z,4.83
2023-04-20T16:55:10.129Z,7.47
2023-04-20T16:57:42.153Z,5.20
2023-04-20T17:00:11.619Z,4.93
2023-04-20T17:02:40.145Z,7.40
2023-04-20T17:05:09.315Z,5.87
2023-04-20T17:07:37.614Z,6.53
2023-04-20T17:10:06.931Z,7.40
2023-04-20T17:12:35.260Z,5.63
2023-04-20T17:15:05.611Z,8.57
2023-04-20T17:17:34.802Z,5.90
2023-04-20T17:20:06.422Z,5.43
2023-04-20T17:22:35.373Z,7.67
2023-04-20T17:25:06.535Z,8.50
2023-04-20T17:27:36.053Z,8.03
2023-04-20T17:30:06.922Z,5.20
2023-04-20T17:32:35.317Z,6.50
2023-04-20T17:35:04.463Z,10.67
2023-04-20T17:37:32.870Z,8.00
2023-04-20T17:40:01.507Z,6.87
2023-04-20T17:42:31.609Z,6.57
2023-04-20T17:44:59.971Z,8.97
2023-04-20T17:47:32.552Z,7.60
2023-04-20T17:50:01.212Z,10.17
2023-04-20T17:52:29.541Z,8.53
2023-04-20T17:55:00.024Z,9.40
2023-04-20T17:57:28.404Z,11.30
2023-04-20T17:59:56.768Z,11.57
2023-04-20T18:02:25.517Z,7.63
2023-04-20T18:04:59.694Z,9.33
2023-04-20T18:07:29.995Z,9.97
2023-04-20T18:09:58.256Z,11.03
2023-04-20T18:12:26.591Z,10.90
2023-04-20T18:14:54.912Z,13.13
2023-04-20T18:17:23.277Z,10.63
2023-04-20T18:19:51.608Z,12.47
2023-04-20T18:22:21.447Z,10.23
2023-04-20T18:24:49.733Z,8.40
2023-04-20T18:27:18.360Z,10.93
2023-04-20T18:29:46.667Z,8.13
2023-04-20T18:32:16.466Z,11.47
2023-04-20T18:34:44.841Z,10.10
2023-04-20T18:37:17.183Z,9.67
2023-04-20T18:39:46.996Z,9.63
2023-04-20T18:42:15.345Z,11.90
2023-04-20T18:44:43.620Z,10.03
2023-04-20T18:47:12.000Z,12.50
2023-04-20T18:49:40.468Z,11.67
2023-04-20T18:52:08.812Z,12.50
2023-04-20T18:54:38.482Z,12.73
2023-04-20T18:57:08.728Z,10.17
2023-04-20T18:59:37.247Z,9.87
2023-04-20T19:02:05.676Z,11.83
2023-04-20T19:04:36.293Z,12.10
2023-04-20T19:07:04.625Z,14.67
2023-04-20T19:09:32.955Z,10.27
2023-04-20T19:12:02.752Z,14.07
2023-04-20T19:14:32.434Z,24.37
2023-04-20T19:17:02.124Z,12.93
2023-04-20T19:19:30.585Z,11.43
2023-04-20T19:22:00.544Z,17.77
2023-04-20T19:24:29.037Z,14.67
2023-04-20T19:26:57.425Z,11.07
2023-04-20T19:29:25.889Z,14.73
2023-04-20T19:31:55.780Z,13.20
2023-04-20T19:34:24.219Z,17.87
2023-04-20T19:36:53.821Z,12.37
2023-04-20T19:39:22.238Z,14.80
2023-04-20T19:41:50.704Z,29.13
2023-04-20T19:44:19.413Z,32.50
2023-04-20T19:46:49.550Z,19.07
2023-04-20T19:49:20.689Z,18.70
2023-04-20T19:51:49.334Z,13.17
2023-04-20T19:54:17.781Z,17.07
2023-04-20T19:56:46.148Z,10.20
2023-04-20T19:59:14.566Z,13.33
2023-04-20T20:01:43.125Z,10.70
2023-04-20T20:04:11.756Z,10.13
2023-04-20T20:06:44.067Z,11.80
2023-04-20T20:09:13.146Z,19.57
2023-04-20T20:11:42.192Z,12.47
2023-04-20T20:14:10.488Z,10.53
2023-04-20T20:16:38.817Z,10.73
2023-04-20T20:19:07.605Z,7.90
2023-04-20T20:21:36.080Z,7.43
2023-04-20T20:24:06.141Z,9.63
2023-04-20T20:26:34.486Z,11.40
2023-04-20T20:29:02.874Z,8.93
2023-04-20T20:31:31.335Z,10.80
2023-04-20T20:33:59.687Z,10.00
2023-04-20T20:36:28.036Z,10.87
2023-04-20T20:38:57.371Z,12.33
2023-04-20T20:41:28.090Z,10.37
2023-04-20T20:43:57.839Z,9.90
2023-04-20T20:46:26.671Z,9.30
2023-04-20T20:48:56.030Z,7.80
2023-04-20T20:51:24.585Z,10.80
2023-04-20T20:53:53.151Z,10.83
2023-04-20T20:56:21.664Z,8.70
2023-04-20T20:58:51.526Z,7.43
2023-04-20T21:01:20.013Z,9.17
2023-04-20T21:03:50.152Z,10.53
2023-04-20T21:06:18.857Z,8.63
2023-04-20T21:08:47.111Z,10.23
2023-04-20T21:11:15.399Z,8.27
2023-04-20T21:13:43.725Z,8.70
2023-04-20T21:16:13.432Z,9.57
2023-04-20T21:18:42.709Z,8.67
2023-04-20T21:21:13.556Z,8.93
2023-04-20T21:23:42.801Z,7.43
2023-04-20T21:26:11.121Z,10.33
2023-04-20T21:28:39.421Z,7.30
2023-04-20T21:31:07.723Z,7.57
2023-04-20T21:33:37.583Z,8.37
2023-04-20T21:36:06.377Z,6.43
2023-04-20T21:38:34.740Z,8.20
2023-04-20T21:41:03.339Z,6.13
2023-04-20T21:43:31.614Z,7.87
2023-04-20T21:45:59.971Z,23.63
2023-04-20T21:48:28.337Z,10.87
2023-04-20T21:50:57.988Z,7.73
2023-04-20T21:53:26.314Z,8.03
2023-04-20T21:55:54.576Z,7.23
2023-04-20T21:58:22.909Z,7.77
2023-04-20T22:00:51.299Z,8.07
2023-04-20T22:03:20.885Z,6.83
2023-04-20T22:05:49.276Z,11.63
2023-04-20T22:08:22.048Z,7.33
2023-04-20T22:10:50.631Z,8.43
2023-04-20T22:13:19.836Z,7.30
2023-04-20T22:15:48.738Z,5.33
2023-04-20T22:18:18.911Z,5.40
2023-04-20T22:20:48.099Z,5.10
2023-04-20T22:23:16.494Z,4.70
2023-04-20T22:25:46.264Z,6.33
2023-04-20T22:28:14.889Z,7.57
2023-04-20T22:30:43.347Z,5.40
2023-04-20T22:33:11.592Z,5.10
2023-04-20T22:35:39.906Z,5.43
2023-04-20T22:38:08.179Z,6.57
2023-04-20T22:40:36.477Z,5.43
2023-04-20T22:43:06.261Z,6.03
2023-04-20T22:45:34.567Z,6.37
2023-04-20T22:48:02.869Z,7.23
2023-04-20T22:50:31.418Z,5.53
2023-04-20T22:52:59.702Z,5.80
2023-04-20T22:55:28.212Z,6.80
2023-04-20T22:57:56.525Z,6.43
2023-04-20T23:00:26.244Z,6.60
2023-04-20T23:02:54.701Z,8.47
2023-04-20T23:05:23.102Z,5.97
2023-04-20T23:07:53.929Z,11.67
2023-04-20T23:10:22.369Z,4.43
2023-04-20T23:12:50.844Z,4.90
2023-04-20T23:15:19.241Z,4.30
2023-04-20T23:17:48.947Z,5.40
2023-04-20T23:20:18.113Z,12.77
2023-04-20T23:22:46.374Z,7.33
2023-04-20T23:25:14.712Z,5.93
2023-04-20T23:27:42.927Z,4.00
2023-04-20T23:30:11.999Z,4.67
2023-04-20T23:32:41.814Z,7.93
2023-04-20T23:35:13.093Z,5.10
2023-04-20T23:37:41.413Z,4.40
2023-04-20T23:40:11.042Z,4.03
2023-04-20T23:42:39.522Z,3.93
2023-04-20T23:45:08.927Z,4.47
2023-04-20T23:47:37.321Z,4.10
2023-04-20T23:50:06.314Z,4.30
2023-04-20T23:52:36.317Z,4.07
2023-04-20T23:55:04.949Z,3.67
2023-04-20T23:57:33.245Z,3.70
